Kake Airport Kake US
ICAO: PAFE
IATA:
Category: Medium
Scheduled Services:

Elevation: 172 ft
TransAlt. 18000 ft.

Airport Communications:
AWOS 3:135.25
ANCHORAGE CNTR:118
CTAF:122.9
SITKA RDO:121.3

PAFE Zoom In..

If you have problems with the map follow the link
https://www.worldairports.se/pages/airport.php?
ICAO=PAFE

Runways:

(A) RW 11 length 4000 ft width 100 ft
---- / hdg 109

(B) RW 29 length 4000 ft width 100 ft
---- / hdg 289

Location; PAFE
Day. 19 / Time. 00.56 Zulu
* Altimeter: 30.14
* Temperature: 09° c. 48.2°f.
* Wind from: 000° Speed 00 kn.
Dewpoint: 08° c.
Visibility: 10 Statute Miles.
Clouds: Few 12000 ft.

PAFE 190056Z AUTO 00000KT 10SM FEW120 09/08 A3014 RMK AO2 SLP217 T00940078


Wind - Calm.

 
 
jpsmedia.com for Web Design worldairports.se 2018   terms of use